Terminal Aerodrome Forecast
Issued by NWS

Home | Current Version | Previous Version | Graphics & Text | Print | Product List | Glossary On
Versions: 1 2 3 4 5 6 7 8 9 10 11 12 13 14 15 16
000
FTUS43 KABR 031100
TAFMBG
TAF
KMBG 031122Z 0312/0412 01016G23KT P6SM SCT100
     FM031500 01016G25KT P6SM VCSH OVC080
     FM031800 01017G26KT P6SM SCT150
     FM040100 03008KT P6SM BKN150=

USA.gov is the U.S. government's official web portal to all federal, state and local government web resources and services.